createdAt,value
2023-02-13T00:01:15.472Z,55.76
2023-02-13T00:03:17.021Z,55.55
2023-02-13T00:05:18.787Z,55.52
2023-02-13T00:07:20.327Z,55.58
2023-02-13T00:09:21.990Z,55.48
2023-02-13T00:11:23.604Z,55.61
2023-02-13T00:13:25.231Z,55.40
2023-02-13T00:15:27.040Z,55.43
2023-02-13T00:17:28.809Z,55.59
2023-02-13T00:19:30.508Z,55.64
2023-02-13T00:21:32.219Z,55.46
2023-02-13T00:23:36.242Z,55.54
2023-02-13T00:25:38.867Z,55.31
2023-02-13T00:27:40.290Z,55.38
2023-02-13T00:29:49.270Z,55.58
2023-02-13T00:31:51.098Z,55.51
2023-02-13T00:33:52.679Z,55.41
2023-02-13T00:36:13.047Z,55.52
2023-02-13T00:38:14.454Z,55.46
2023-02-13T00:40:16.132Z,55.54
2023-02-13T00:42:24.050Z,55.18
2023-02-13T00:44:25.650Z,55.80
2023-02-13T00:46:29.332Z,55.43
2023-02-13T00:48:33.638Z,55.54
2023-02-13T00:50:35.418Z,55.57
2023-02-13T00:52:40.663Z,55.86
2023-02-13T00:54:42.344Z,55.49
2023-02-13T00:56:44.065Z,56.01
2023-02-13T00:58:48.044Z,55.59
2023-02-13T01:00:49.855Z,55.78
2023-02-13T01:02:51.384Z,55.76
2023-02-13T01:04:53.132Z,55.67
2023-02-13T01:06:54.871Z,55.63
2023-02-13T01:08:56.482Z,56.11
2023-02-13T01:11:00.796Z,55.92
2023-02-13T01:13:02.407Z,55.78
2023-02-13T01:15:05.949Z,55.82
2023-02-13T01:17:08.208Z,56.24
2023-02-13T01:19:15.819Z,55.95
2023-02-13T01:21:20.184Z,55.97
2023-02-13T01:23:21.602Z,56.26
2023-02-13T01:25:23.679Z,56.34
2023-02-13T01:27:25.593Z,56.48
2023-02-13T01:29:27.218Z,56.49
2023-02-13T01:31:29.147Z,56.27
2023-02-13T01:33:30.697Z,56.47
2023-02-13T01:35:32.340Z,56.33
2023-02-13T01:37:34.096Z,55.87
2023-02-13T01:39:35.883Z,55.90
2023-02-13T01:41:38.044Z,56.39
2023-02-13T01:43:59.783Z,56.25
2023-02-13T01:46:02.489Z,56.25
2023-02-13T01:48:13.496Z,56.24
2023-02-13T01:50:36.028Z,56.43
2023-02-13T01:52:42.386Z,56.38
2023-02-13T01:54:44.622Z,56.23
2023-02-13T01:56:51.779Z,56.41
2023-02-13T01:58:59.789Z,56.85
2023-02-13T02:01:02.958Z,56.76
2023-02-13T02:03:16.135Z,56.90
2023-02-13T02:05:21.850Z,56.59
2023-02-13T02:07:26.311Z,56.59
2023-02-13T02:09:32.667Z,56.35
2023-02-13T02:11:52.756Z,56.75
2023-02-13T02:13:56.032Z,56.33
2023-02-13T02:16:09.609Z,56.98
2023-02-13T02:18:23.259Z,56.54
2023-02-13T02:21:01.417Z,56.64
2023-02-13T02:23:25.117Z,56.99
2023-02-13T02:25:46.387Z,57.03
2023-02-13T02:28:02.624Z,57.11
2023-02-13T02:30:27.473Z,56.63
2023-02-13T02:32:44.809Z,57.42
2023-02-13T02:34:58.441Z,56.88
2023-02-13T02:37:11.864Z,57.07
2023-02-13T02:39:31.921Z,57.49
2023-02-13T02:41:46.526Z,57.71
2023-02-13T02:44:20.348Z,57.06
2023-02-13T02:46:36.225Z,57.26
2023-02-13T02:49:12.689Z,57.51
2023-02-13T02:51:24.948Z,57.61
2023-02-13T02:53:52.447Z,57.54
2023-02-13T02:55:54.129Z,57.24
2023-02-13T02:58:28.808Z,57.31
2023-02-13T03:00:55.342Z,57.18
2023-02-13T03:03:15.949Z,56.55
2023-02-13T03:05:43.670Z,57.14
2023-02-13T03:07:45.222Z,57.34
2023-02-13T03:10:16.635Z,57.04
2023-02-13T03:12:43.253Z,56.71
2023-02-13T03:14:44.971Z,57.54
2023-02-13T03:17:08.135Z,56.54
2023-02-13T03:19:41.607Z,56.92
2023-02-13T03:22:15.177Z,56.79
2023-02-13T03:24:25.986Z,57.02
2023-02-13T03:26:50.534Z,57.40
2023-02-13T03:29:58.953Z,57.00
2023-02-13T03:32:17.565Z,56.86
2023-02-13T03:34:25.819Z,56.45
2023-02-13T03:37:09.763Z,57.24
2023-02-13T03:39:14.723Z,56.55
2023-02-13T03:41:22.008Z,57.01
2023-02-13T03:43:25.314Z,57.09
2023-02-13T03:45:54.278Z,57.12
2023-02-13T03:47:59.580Z,56.84
2023-02-13T03:50:09.176Z,56.74
2023-02-13T03:52:22.521Z,57.10
2023-02-13T03:55:12.605Z,56.93
2023-02-13T03:57:38.937Z,56.61
2023-02-13T03:59:43.946Z,57.46
2023-02-13T04:02:01.588Z,57.16
2023-02-13T04:04:23.186Z,56.90
2023-02-13T04:07:00.017Z,57.11
2023-02-13T04:09:01.977Z,56.90
2023-02-13T04:11:23.728Z,57.13
2023-02-13T04:13:34.719Z,57.40
2023-02-13T04:15:45.923Z,57.24
2023-02-13T04:17:56.835Z,57.03
2023-02-13T04:19:58.462Z,57.00
2023-02-13T04:22:01.783Z,56.97
2023-02-13T04:24:03.749Z,56.95
2023-02-13T04:26:14.946Z,57.51
2023-02-13T04:28:17.233Z,56.88
2023-02-13T04:30:18.818Z,57.08
2023-02-13T04:32:20.373Z,57.44
2023-02-13T04:34:22.009Z,56.97
2023-02-13T04:36:23.619Z,57.21
2023-02-13T04:38:25.316Z,57.29
2023-02-13T04:40:26.899Z,56.97
2023-02-13T04:42:28.840Z,57.24
2023-02-13T04:44:30.400Z,57.27
2023-02-13T04:46:31.950Z,57.55
2023-02-13T04:48:33.753Z,57.16
2023-02-13T04:50:35.551Z,57.33
2023-02-13T04:52:37.357Z,57.29
2023-02-13T04:54:38.795Z,57.34
2023-02-13T04:56:40.273Z,57.01
2023-02-13T04:58:42.141Z,57.42
2023-02-13T05:00:43.735Z,57.30
2023-02-13T05:02:45.397Z,57.67
2023-02-13T05:04:46.891Z,57.60
2023-02-13T05:06:48.389Z,57.53
2023-02-13T05:08:49.943Z,57.20
2023-02-13T05:10:51.474Z,57.78
2023-02-13T05:12:53.321Z,57.40
2023-02-13T05:14:54.725Z,57.19
2023-02-13T05:16:56.235Z,56.73
2023-02-13T05:18:57.828Z,56.87
2023-02-13T05:21:18.138Z,57.28
2023-02-13T05:23:22.971Z,57.68
2023-02-13T05:25:24.491Z,57.37
2023-02-13T05:27:26.014Z,57.30
2023-02-13T05:29:27.737Z,57.54
2023-02-13T05:31:29.630Z,57.19
2023-02-13T05:33:31.398Z,57.11
2023-02-13T05:35:32.949Z,57.22
2023-02-13T05:37:34.575Z,56.90
2023-02-13T05:39:36.223Z,57.23
2023-02-13T05:41:37.741Z,57.02
2023-02-13T05:43:40.350Z,57.65
2023-02-13T05:45:41.897Z,57.37
2023-02-13T05:47:50.456Z,57.43
2023-02-13T05:49:52.089Z,57.84
2023-02-13T05:51:53.710Z,57.32
2023-02-13T05:53:58.595Z,57.24
2023-02-13T05:56:00.184Z,57.25
2023-02-13T05:58:01.704Z,57.15
2023-02-13T06:00:04.491Z,57.23
2023-02-13T06:02:07.805Z,57.10
2023-02-13T06:04:09.538Z,57.84
2023-02-13T06:06:11.338Z,56.72
2023-02-13T06:08:12.978Z,57.09
2023-02-13T06:10:14.498Z,57.31
2023-02-13T06:12:16.203Z,57.27
2023-02-13T06:14:17.812Z,57.28
2023-02-13T06:16:19.446Z,57.57
2023-02-13T06:18:21.186Z,57.14
2023-02-13T06:20:23.163Z,57.65
2023-02-13T06:22:39.639Z,57.46
2023-02-13T06:24:41.492Z,57.75
2023-02-13T06:26:43.123Z,56.91
2023-02-13T06:28:44.790Z,57.31
2023-02-13T06:30:47.340Z,57.51
2023-02-13T06:32:49.043Z,57.40
2023-02-13T06:34:50.592Z,57.79
2023-02-13T06:36:52.812Z,57.24
2023-02-13T06:38:57.401Z,57.56
2023-02-13T06:41:02.109Z,57.38
2023-02-13T06:43:06.531Z,57.43
2023-02-13T06:45:08.976Z,57.01
2023-02-13T06:47:11.040Z,57.41
2023-02-13T06:49:12.686Z,57.54
2023-02-13T06:51:14.282Z,57.48
2023-02-13T06:53:15.829Z,57.38
2023-02-13T06:55:18.345Z,57.47
2023-02-13T06:57:19.902Z,58.37
2023-02-13T06:59:21.549Z,57.64
2023-02-13T07:01:23.353Z,57.85
2023-02-13T07:03:24.976Z,57.84
2023-02-13T07:05:26.905Z,58.13
2023-02-13T07:07:28.639Z,57.45
2023-02-13T07:09:31.719Z,57.53
2023-02-13T07:11:33.459Z,58.08
2023-02-13T07:13:35.228Z,57.80
2023-02-13T07:15:37.958Z,57.64
2023-02-13T07:17:39.617Z,57.86
2023-02-13T07:19:41.283Z,57.97
2023-02-13T07:21:42.840Z,58.40
2023-02-13T07:23:44.595Z,57.66
2023-02-13T07:25:46.272Z,57.94
2023-02-13T07:27:47.768Z,58.02
2023-02-13T07:29:49.346Z,57.94
2023-02-13T07:31:50.856Z,58.01
2023-02-13T07:33:52.458Z,57.70
2023-02-13T07:35:53.976Z,57.86
2023-02-13T07:37:55.933Z,57.88
2023-02-13T07:39:57.707Z,57.72
2023-02-13T07:41:59.377Z,57.93
2023-02-13T07:44:09.182Z,57.83
2023-02-13T07:46:11.075Z,58.21
2023-02-13T07:48:12.662Z,57.99
2023-02-13T07:50:14.355Z,57.68
2023-02-13T07:52:15.900Z,57.96
2023-02-13T07:54:17.521Z,57.54
2023-02-13T07:56:19.001Z,58.10
2023-02-13T07:58:21.360Z,58.11
2023-02-13T08:00:23.546Z,58.11
2023-02-13T08:02:28.458Z,58.13
2023-02-13T08:04:30.101Z,57.79
2023-02-13T08:06:31.853Z,57.93
2023-02-13T08:08:34.001Z,58.12
2023-02-13T08:10:54.407Z,57.38
2023-02-13T08:12:56.060Z,58.23
2023-02-13T08:14:57.689Z,57.86
2023-02-13T08:17:00.896Z,58.04
2023-02-13T08:19:02.387Z,58.10
2023-02-13T08:21:04.231Z,57.92
2023-02-13T08:23:08.048Z,58.31
2023-02-13T08:25:09.655Z,58.46
2023-02-13T08:27:13.525Z,57.79
2023-02-13T08:29:14.962Z,58.41
2023-02-13T08:31:16.655Z,57.83
2023-02-13T08:33:18.266Z,58.30
2023-02-13T08:35:23.973Z,58.49
2023-02-13T08:37:25.561Z,57.98
2023-02-13T08:39:36.468Z,57.90
2023-02-13T08:41:38.140Z,58.28
2023-02-13T08:43:42.149Z,57.78
2023-02-13T08:45:45.116Z,57.74
2023-02-13T08:47:46.698Z,57.92
2023-02-13T08:49:48.534Z,58.30
2023-02-13T08:51:50.923Z,58.32
2023-02-13T08:53:52.697Z,58.43
2023-02-13T08:55:55.900Z,58.06
2023-02-13T08:58:04.937Z,58.15
2023-02-13T09:00:07.319Z,57.90
2023-02-13T09:02:11.604Z,58.63
2023-02-13T09:04:18.217Z,58.23
2023-02-13T09:06:19.848Z,58.53
2023-02-13T09:08:21.360Z,58.08
2023-02-13T09:10:23.604Z,58.44
2023-02-13T09:12:25.447Z,58.10
2023-02-13T09:14:27.199Z,58.26
2023-02-13T09:16:29.030Z,58.31
2023-02-13T09:18:33.311Z,57.80
2023-02-13T09:20:36.411Z,58.16
2023-02-13T09:22:38.111Z,58.23
2023-02-13T09:24:39.808Z,58.20
2023-02-13T09:26:41.453Z,58.40
2023-02-13T09:28:43.812Z,57.91
2023-02-13T09:30:46.063Z,58.25
2023-02-13T09:32:47.775Z,58.35
2023-02-13T09:34:49.316Z,58.09
2023-02-13T09:36:54.452Z,58.36
2023-02-13T09:38:57.478Z,58.59
2023-02-13T09:41:12.216Z,58.10
2023-02-13T09:43:20.667Z,58.53
2023-02-13T09:45:22.803Z,58.21
2023-02-13T09:47:41.562Z,58.42
2023-02-13T09:49:54.122Z,58.79
2023-02-13T09:51:57.510Z,58.20
2023-02-13T09:54:09.164Z,58.69
2023-02-13T09:56:16.018Z,58.47
2023-02-13T09:58:53.699Z,58.53
2023-02-13T10:01:00.886Z,58.32
2023-02-13T10:03:13.364Z,59.14
2023-02-13T10:05:50.187Z,59.96
2023-02-13T10:08:20.904Z,59.05
2023-02-13T10:10:47.697Z,59.46
2023-02-13T10:13:08.495Z,59.41
2023-02-13T10:15:24.728Z,59.59
2023-02-13T10:17:33.140Z,59.06
2023-02-13T10:19:44.296Z,59.10
2023-02-13T10:22:14.527Z,59.30
2023-02-13T10:24:29.880Z,59.14
2023-02-13T10:26:42.850Z,58.81
2023-02-13T10:29:15.802Z,59.02
2023-02-13T10:31:22.866Z,59.13
2023-02-13T10:33:38.742Z,59.33
2023-02-13T10:35:43.399Z,59.16
2023-02-13T10:37:51.183Z,59.23
2023-02-13T10:39:56.521Z,59.15
2023-02-13T10:42:23.004Z,59.36
2023-02-13T10:44:53.740Z,59.13
2023-02-13T10:47:17.265Z,59.27
2023-02-13T10:49:46.215Z,59.17
2023-02-13T10:52:01.571Z,59.25
2023-02-13T10:54:27.849Z,59.12
2023-02-13T10:56:51.920Z,59.38
2023-02-13T10:59:03.068Z,59.16
2023-02-13T11:01:22.315Z,59.50
2023-02-13T11:03:26.496Z,59.40
2023-02-13T11:05:39.704Z,59.49
2023-02-13T11:07:42.489Z,59.35
2023-02-13T11:09:47.252Z,59.66
2023-02-13T11:11:50.124Z,59.13
2023-02-13T11:14:13.306Z,59.91
2023-02-13T11:16:15.181Z,59.65
2023-02-13T11:18:21.964Z,59.48
2023-02-13T11:20:37.761Z,59.81
2023-02-13T11:22:42.656Z,59.63
2023-02-13T11:24:53.773Z,59.83
2023-02-13T11:27:13.617Z,59.63
2023-02-13T11:29:24.026Z,59.59
2023-02-13T11:31:30.213Z,59.43
2023-02-13T11:33:37.836Z,59.80
2023-02-13T11:35:39.533Z,59.50
2023-02-13T11:37:47.678Z,59.50
2023-02-13T11:39:51.647Z,59.75
2023-02-13T11:41:55.027Z,60.11
2023-02-13T11:44:04.193Z,60.28
2023-02-13T11:46:11.178Z,60.19
2023-02-13T11:48:23.305Z,59.96
2023-02-13T11:50:36.187Z,59.75
2023-02-13T11:52:37.946Z,59.42
2023-02-13T11:54:43.543Z,59.26
2023-02-13T11:57:06.135Z,59.33
2023-02-13T11:59:13.682Z,59.19
2023-02-13T12:01:21.389Z,59.61
2023-02-13T12:03:31.689Z,59.94
2023-02-13T12:05:38.683Z,59.49
2023-02-13T12:07:41.797Z,59.72
2023-02-13T12:09:45.489Z,60.02
2023-02-13T12:11:53.524Z,60.42
2023-02-13T12:13:55.775Z,59.72
2023-02-13T12:16:05.424Z,59.90
2023-02-13T12:18:30.067Z,60.12
2023-02-13T12:20:41.611Z,59.99
2023-02-13T12:23:06.189Z,60.33
2023-02-13T12:25:39.377Z,59.99
2023-02-13T12:27:59.990Z,60.45
2023-02-13T12:30:23.519Z,60.25
2023-02-13T12:32:47.961Z,60.82
2023-02-13T12:35:08.147Z,61.02
2023-02-13T12:37:30.544Z,61.04
2023-02-13T12:39:36.684Z,60.37
2023-02-13T12:41:53.554Z,60.21
2023-02-13T12:44:49.993Z,60.99
2023-02-13T12:47:14.731Z,60.94
2023-02-13T12:49:37.041Z,60.41
2023-02-13T12:51:49.590Z,60.53
2023-02-13T12:53:53.842Z,60.16
2023-02-13T12:56:13.717Z,60.04
2023-02-13T12:58:38.640Z,60.10
2023-02-13T13:00:45.994Z,59.83
2023-02-13T13:03:24.144Z,60.00
2023-02-13T13:05:45.204Z,59.64
2023-02-13T13:08:18.368Z,59.50
2023-02-13T13:10:58.956Z,59.25
2023-02-13T13:13:22.578Z,59.33
2023-02-13T13:15:39.464Z,58.88
2023-02-13T13:18:15.968Z,58.72
2023-02-13T13:20:36.523Z,58.50
2023-02-13T13:22:51.185Z,58.30
2023-02-13T13:25:22.475Z,57.95
2023-02-13T13:27:28.310Z,58.00
2023-02-13T13:29:47.866Z,57.68
2023-02-13T13:31:59.898Z,57.51
2023-02-13T13:34:05.919Z,57.45
2023-02-13T13:36:34.662Z,57.16
2023-02-13T13:38:39.377Z,56.92
2023-02-13T13:41:12.107Z,56.77
2023-02-13T13:43:39.445Z,56.57
2023-02-13T13:45:50.297Z,56.42
2023-02-13T13:48:37.629Z,56.01
2023-02-13T13:50:41.834Z,56.31
2023-02-13T13:53:06.045Z,55.57
2023-02-13T13:55:48.073Z,55.06
2023-02-13T13:58:00.197Z,54.95
2023-02-13T14:00:12.763Z,54.92
2023-02-13T14:02:18.842Z,55.13
2023-02-13T14:04:32.898Z,55.01
2023-02-13T14:06:46.306Z,54.60
2023-02-13T14:09:09.647Z,54.55
2023-02-13T14:11:46.963Z,54.12
2023-02-13T14:13:50.404Z,54.35
2023-02-13T14:15:52.727Z,54.36
2023-02-13T14:17:55.559Z,54.19
2023-02-13T14:19:58.358Z,54.13
2023-02-13T14:22:18.661Z,52.65
2023-02-13T14:24:22.482Z,53.46
2023-02-13T14:26:32.077Z,53.28
2023-02-13T14:28:33.873Z,53.11
2023-02-13T14:30:38.263Z,52.85
2023-02-13T14:32:41.254Z,52.75
2023-02-13T14:34:50.929Z,52.59
2023-02-13T14:37:10.946Z,52.11
2023-02-13T14:39:27.609Z,52.05
2023-02-13T14:41:51.150Z,52.13
2023-02-13T14:43:53.930Z,51.97
2023-02-13T14:46:25.360Z,51.72
2023-02-13T14:48:42.641Z,52.07
2023-02-13T14:50:51.801Z,51.85
2023-02-13T14:52:55.227Z,52.47
2023-02-13T14:55:05.452Z,53.12
2023-02-13T14:57:17.282Z,53.17
2023-02-13T14:59:31.491Z,53.21
2023-02-13T15:01:44.438Z,53.45
2023-02-13T15:03:55.105Z,53.54
2023-02-13T15:06:01.216Z,53.68
2023-02-13T15:08:14.165Z,53.69
2023-02-13T15:10:41.194Z,53.90
2023-02-13T15:12:43.102Z,53.95
2023-02-13T15:14:47.252Z,53.93
2023-02-13T15:16:55.041Z,54.08
2023-02-13T15:18:57.078Z,54.17
2023-02-13T15:21:01.209Z,54.06
2023-02-13T15:23:06.655Z,54.11
2023-02-13T15:25:09.357Z,54.14
2023-02-13T15:27:28.823Z,54.02
2023-02-13T15:29:53.887Z,54.06
2023-02-13T15:31:55.849Z,53.92
2023-02-13T15:33:58.816Z,54.18
2023-02-13T15:36:02.897Z,53.93
2023-02-13T15:38:30.804Z,54.08
2023-02-13T15:40:41.071Z,53.69
2023-02-13T15:42:42.654Z,54.02
2023-02-13T15:44:47.714Z,54.16
2023-02-13T15:46:53.873Z,54.13
2023-02-13T15:48:58.915Z,53.90
2023-02-13T15:51:01.397Z,53.97
2023-02-13T15:53:05.965Z,54.19
2023-02-13T15:55:19.791Z,54.06
2023-02-13T15:57:23.476Z,53.88
2023-02-13T15:59:36.599Z,53.90
2023-02-13T16:01:44.555Z,53.92
2023-02-13T16:03:49.678Z,53.91
2023-02-13T16:05:51.537Z,53.95
2023-02-13T16:07:58.864Z,53.96
2023-02-13T16:10:26.150Z,53.98
2023-02-13T16:12:28.720Z,53.98
2023-02-13T16:14:38.330Z,53.90
2023-02-13T16:16:56.539Z,53.64
2023-02-13T16:18:58.237Z,53.67
2023-02-13T16:21:00.618Z,53.85
2023-02-13T16:23:14.162Z,53.73
2023-02-13T16:25:26.500Z,53.90
2023-02-13T16:27:28.608Z,53.68
2023-02-13T16:29:30.292Z,53.86
2023-02-13T16:31:31.990Z,53.35
2023-02-13T16:33:43.071Z,53.63
2023-02-13T16:36:09.054Z,53.88
2023-02-13T16:38:23.231Z,53.57
2023-02-13T16:40:27.810Z,53.56
2023-02-13T16:42:32.698Z,53.58
2023-02-13T16:44:34.374Z,53.55
2023-02-13T16:46:53.556Z,53.27
2023-02-13T16:49:13.840Z,53.26
2023-02-13T16:51:24.843Z,53.41
2023-02-13T16:53:27.682Z,53.22
2023-02-13T16:55:31.757Z,53.10
2023-02-13T16:57:36.136Z,53.01
2023-02-13T16:59:56.638Z,52.87
2023-02-13T17:02:15.977Z,52.61
2023-02-13T17:04:28.398Z,52.58
2023-02-13T17:06:30.065Z,52.69
2023-02-13T17:08:32.346Z,52.69
2023-02-13T17:10:38.860Z,52.40
2023-02-13T17:12:40.513Z,52.48
2023-02-13T17:14:43.047Z,52.37
2023-02-13T17:16:44.782Z,52.33
2023-02-13T17:18:46.540Z,52.35
2023-02-13T17:20:51.258Z,52.35
2023-02-13T17:22:55.318Z,52.50
2023-02-13T17:24:58.697Z,52.38
2023-02-13T17:27:00.319Z,52.52
2023-02-13T17:29:03.725Z,52.42
2023-02-13T17:31:11.178Z,52.08
2023-02-13T17:33:27.532Z,52.40
2023-02-13T17:35:31.581Z,52.41
2023-02-13T17:37:36.242Z,52.52
2023-02-13T17:39:40.515Z,52.29
2023-02-13T17:41:42.963Z,52.27
2023-02-13T17:43:48.487Z,52.25
2023-02-13T17:45:51.416Z,52.58
2023-02-13T17:47:53.346Z,52.28
2023-02-13T17:50:01.987Z,52.13
2023-02-13T17:52:06.814Z,52.47
2023-02-13T17:54:12.608Z,52.41
2023-02-13T17:56:20.283Z,52.37
2023-02-13T17:58:22.109Z,52.74
2023-02-13T18:00:26.992Z,52.36
2023-02-13T18:02:28.742Z,52.51
2023-02-13T18:04:30.493Z,52.32
2023-02-13T18:06:33.294Z,52.60
2023-02-13T18:08:35.132Z,52.63
2023-02-13T18:10:37.492Z,52.92
2023-02-13T18:12:39.596Z,52.29
2023-02-13T18:14:41.938Z,52.40
2023-02-13T18:16:44.296Z,52.69
2023-02-13T18:18:54.871Z,52.56
2023-02-13T18:21:00.099Z,52.45
2023-02-13T18:23:01.998Z,52.66
2023-02-13T18:25:04.293Z,52.49
2023-02-13T18:27:11.320Z,52.65
2023-02-13T18:29:13.309Z,52.79
2023-02-13T18:31:16.825Z,52.90
2023-02-13T18:33:18.681Z,52.64
2023-02-13T18:35:21.231Z,52.72
2023-02-13T18:37:22.966Z,52.65
2023-02-13T18:39:24.435Z,52.90
2023-02-13T18:41:27.296Z,52.74
2023-02-13T18:43:28.967Z,52.85
2023-02-13T18:45:31.421Z,52.88
2023-02-13T18:47:32.960Z,52.76
2023-02-13T18:49:35.314Z,52.98
2023-02-13T18:51:37.058Z,53.08
2023-02-13T18:53:38.839Z,53.05
2023-02-13T18:55:40.611Z,53.04
2023-02-13T18:57:43.649Z,52.90
2023-02-13T18:59:48.407Z,52.92
2023-02-13T19:01:50.568Z,52.82
2023-02-13T19:03:53.108Z,52.91
2023-02-13T19:05:55.537Z,52.94
2023-02-13T19:08:02.051Z,53.00
2023-02-13T19:10:07.058Z,53.20
2023-02-13T19:12:09.008Z,53.16
2023-02-13T19:14:12.632Z,52.91
2023-02-13T19:16:19.291Z,52.97
2023-02-13T19:18:20.885Z,53.19
2023-02-13T19:20:29.363Z,53.00
2023-02-13T19:22:34.292Z,53.20
2023-02-13T19:24:36.152Z,53.19
2023-02-13T19:26:38.104Z,52.76
2023-02-13T19:28:39.801Z,53.24
2023-02-13T19:30:41.441Z,53.32
2023-02-13T19:32:43.039Z,53.25
2023-02-13T19:34:44.912Z,53.09
2023-02-13T19:36:46.647Z,53.22
2023-02-13T19:38:54.238Z,53.18
2023-02-13T19:40:56.865Z,53.44
2023-02-13T19:42:58.792Z,53.32
2023-02-13T19:45:00.342Z,53.33
2023-02-13T19:47:02.010Z,53.10
2023-02-13T19:49:04.597Z,53.43
2023-02-13T19:51:11.273Z,53.46
2023-02-13T19:53:14.090Z,53.38
2023-02-13T19:55:16.116Z,53.28
2023-02-13T19:57:18.468Z,53.33
2023-02-13T19:59:29.310Z,53.16
2023-02-13T20:01:31.700Z,53.22
2023-02-13T20:03:33.434Z,53.60
2023-02-13T20:05:42.381Z,53.51
2023-02-13T20:07:44.045Z,53.74
2023-02-13T20:09:45.658Z,53.40
2023-02-13T20:11:47.574Z,53.76
2023-02-13T20:13:55.641Z,53.33
2023-02-13T20:16:05.559Z,53.36
2023-02-13T20:18:09.876Z,53.48
2023-02-13T20:20:12.453Z,53.81
2023-02-13T20:22:16.630Z,53.43
2023-02-13T20:24:18.352Z,53.48
2023-02-13T20:26:20.556Z,53.82
2023-02-13T20:28:23.339Z,53.66
2023-02-13T20:30:25.262Z,53.77
2023-02-13T20:32:27.285Z,53.89
2023-02-13T20:34:37.639Z,53.78
2023-02-13T20:36:45.875Z,54.09
2023-02-13T20:38:47.691Z,53.94
2023-02-13T20:40:52.282Z,53.91
2023-02-13T20:42:53.781Z,53.74
2023-02-13T20:44:57.439Z,54.26
2023-02-13T20:47:00.218Z,53.99
2023-02-13T20:49:02.814Z,53.63
2023-02-13T20:51:07.572Z,53.85
2023-02-13T20:53:10.044Z,54.18
2023-02-13T20:55:11.756Z,54.05
2023-02-13T20:57:14.620Z,53.71
2023-02-13T20:59:17.209Z,54.16
2023-02-13T21:01:30.717Z,54.52
2023-02-13T21:03:32.252Z,54.95
2023-02-13T21:05:33.844Z,55.76
2023-02-13T21:07:35.529Z,56.64
2023-02-13T21:09:37.597Z,56.21
2023-02-13T21:11:42.390Z,56.90
2023-02-13T21:13:48.444Z,57.15
2023-02-13T21:15:53.605Z,57.19
2023-02-13T21:17:55.567Z,57.32
2023-02-13T21:19:57.243Z,56.97
2023-02-13T21:22:11.127Z,57.13
2023-02-13T21:24:15.988Z,57.62
2023-02-13T21:26:21.675Z,57.92
2023-02-13T21:28:23.481Z,58.34
2023-02-13T21:30:28.045Z,58.10
2023-02-13T21:32:29.885Z,57.83
2023-02-13T21:34:31.836Z,58.39
2023-02-13T21:36:35.893Z,58.40
2023-02-13T21:38:39.208Z,58.39
2023-02-13T21:40:41.968Z,59.20
2023-02-13T21:42:43.798Z,58.93
2023-02-13T21:44:48.389Z,58.79
2023-02-13T21:46:50.712Z,59.01
2023-02-13T21:48:56.782Z,59.63
2023-02-13T21:50:59.053Z,58.96
2023-02-13T21:53:03.940Z,59.87
2023-02-13T21:55:07.402Z,59.42
2023-02-13T21:57:10.454Z,60.04
2023-02-13T21:59:16.474Z,59.92
2023-02-13T22:01:26.403Z,59.90
2023-02-13T22:03:33.011Z,59.72
2023-02-13T22:05:34.590Z,59.96
2023-02-13T22:07:56.188Z,59.87
2023-02-13T22:09:57.722Z,60.72
2023-02-13T22:11:59.478Z,60.91
2023-02-13T22:14:10.834Z,60.44
2023-02-13T22:16:14.903Z,60.36
2023-02-13T22:18:16.554Z,60.22
2023-02-13T22:20:18.859Z,60.25
2023-02-13T22:22:20.655Z,59.54
2023-02-13T22:24:22.217Z,59.39
2023-02-13T22:26:32.507Z,59.87
2023-02-13T22:28:34.483Z,59.71
2023-02-13T22:30:36.423Z,59.33
2023-02-13T22:32:39.750Z,59.42
2023-02-13T22:34:41.402Z,58.78
2023-02-13T22:36:45.439Z,58.43
2023-02-13T22:38:47.135Z,59.02
2023-02-13T22:40:48.721Z,59.01
2023-02-13T22:42:52.469Z,58.94
2023-02-13T22:44:54.178Z,58.26
2023-02-13T22:46:55.835Z,58.61
2023-02-13T22:49:01.485Z,58.45
2023-02-13T22:51:10.670Z,58.55
2023-02-13T22:53:12.462Z,58.41
2023-02-13T22:55:14.183Z,58.13
2023-02-13T22:57:17.290Z,58.30
2023-02-13T22:59:21.657Z,58.29
2023-02-13T23:01:25.000Z,57.89
2023-02-13T23:03:32.615Z,57.89
2023-02-13T23:05:39.052Z,58.37
2023-02-13T23:07:42.973Z,57.80
2023-02-13T23:09:45.749Z,58.31
2023-02-13T23:12:06.009Z,58.25
2023-02-13T23:14:08.183Z,57.89
2023-02-13T23:16:13.852Z,58.31
2023-02-13T23:18:15.578Z,57.71
2023-02-13T23:20:18.728Z,58.10
2023-02-13T23:22:20.377Z,57.91
2023-02-13T23:24:21.949Z,57.55
2023-02-13T23:26:23.442Z,57.44
2023-02-13T23:28:25.062Z,58.19
2023-02-13T23:30:30.087Z,58.03
2023-02-13T23:32:32.253Z,57.83
2023-02-13T23:34:37.044Z,57.91
2023-02-13T23:36:38.626Z,57.79
2023-02-13T23:38:40.300Z,57.78
2023-02-13T23:40:41.921Z,58.01
2023-02-13T23:42:43.927Z,57.75
2023-02-13T23:44:45.482Z,57.77
2023-02-13T23:46:48.355Z,57.71
2023-02-13T23:48:49.959Z,57.67
2023-02-13T23:50:53.158Z,57.97
2023-02-13T23:52:54.710Z,57.59
2023-02-13T23:54:59.008Z,57.71
2023-02-13T23:57:00.786Z,57.54
2023-02-13T23:59:02.570Z,57.66
